Time;durP1;ratioP1;P1;durP2;ratioP2;P2;SDS_P1;SDS_P2;PMS_P1;PMS_P2;Temp;Humidity;BMP_temperature;BMP_pressure;BME280_temperature;BME280_humidity;BME280_pressure;Samples;Min_cycle;Max_cycle;Signal;HPM_P1;HPM_P2
2022/03/24 00:00:19;;;;;;;3.28;2.53;;;;;;;;;;5048492;28;20048;-70
2022/03/24 00:02:47;;;;;;;4.15;3.75;;;;;;;;;;5053558;28;20099;-70
2022/03/24 00:05:14;;;;;;;3.25;2.95;;;;;;;;;;5036265;28;20029;-70
2022/03/24 00:07:41;;;;;;;2.80;2.60;;;;;;;;;;5042934;28;20104;-71
2022/03/24 00:10:08;;;;;;;1.15;1.08;;;;;;;;;;5036298;28;20037;-70
2022/03/24 00:12:34;;;;;;;2.33;2.13;;;;;;;;;;5025573;28;20079;-70
2022/03/24 00:15:01;;;;;;;3.08;2.50;;;;;;;;;;5060002;28;20036;-71
2022/03/24 00:17:26;;;;;;;2.55;2.40;;;;;;;;;;5042779;28;20020;-69
2022/03/24 00:19:53;;;;;;;1.23;1.17;;;;;;;;;;5059832;28;20052;-69
2022/03/24 00:22:20;;;;;;;4.50;2.22;;;;;;;;;;5060130;28;20111;-70
2022/03/24 00:24:47;;;;;;;4.28;3.05;;;;;;;;;;5060200;28;20025;-70
2022/03/24 00:27:15;;;;;;;3.42;3.13;;;;;;;;;;5059571;28;20032;-70
2022/03/24 00:29:41;;;;;;;3.60;2.47;;;;;;;;;;5059477;28;20029;-70
2022/03/24 00:32:07;;;;;;;2.10;1.38;;;;;;;;;;5061717;28;20100;-70
2022/03/24 00:34:35;;;;;;;2.15;2.05;;;;;;;;;;5059948;28;20029;-69
2022/03/24 00:37:03;;;;;;;8.32;3.40;;;;;;;;;;5059836;28;20025;-70
2022/03/24 00:39:34;;;;;;;5.75;2.60;;;;;;;;;;5059985;28;20060;-70
2022/03/24 00:42:11;;;;;;;2.72;2.15;;;;;;;;;;5042719;28;20372;-70
2022/03/24 00:44:37;;;;;;;2.80;1.63;;;;;;;;;;5037557;28;20127;-69
2022/03/24 00:47:04;;;;;;;3.33;2.22;;;;;;;;;;5041846;28;20028;-71
2022/03/24 00:49:31;;;;;;;2.83;2.15;;;;;;;;;;5059359;28;20093;-70
2022/03/24 00:51:57;;;;;;;3.38;2.75;;;;;;;;;;5048290;28;20040;-70
2022/03/24 00:54:22;;;;;;;3.13;2.92;;;;;;;;;;5059707;28;20033;-69
2022/03/24 00:56:48;;;;;;;4.05;2.78;;;;;;;;;;5042450;28;20083;-69
2022/03/24 00:59:13;;;;;;;1.70;1.60;;;;;;;;;;5041567;28;20471;-69
2022/03/24 01:01:39;;;;;;;3.80;1.58;;;;;;;;;;5059461;28;20335;-70
2022/03/24 01:04:10;;;;;;;3.15;1.77;;;;;;;;;;5041911;28;20362;-70
2022/03/24 01:06:38;;;;;;;1.45;1.33;;;;;;;;;;5053271;28;20191;-70
2022/03/24 01:09:05;;;;;;;1.13;1.05;;;;;;;;;;5059943;28;20021;-70
2022/03/24 01:11:32;;;;;;;3.00;2.80;;;;;;;;;;5053279;28;20029;-70
2022/03/24 01:14:00;;;;;;;2.00;1.85;;;;;;;;;;5056962;28;20392;-70
2022/03/24 01:16:25;;;;;;;2.53;2.20;;;;;;;;;;5037980;28;20369;-70
2022/03/24 01:18:53;;;;;;;2.10;1.40;;;;;;;;;;5059061;28;20037;-70
2022/03/24 01:21:18;;;;;;;1.77;1.63;;;;;;;;;;5059193;28;20044;-70
2022/03/24 01:23:47;;;;;;;1.30;1.02;;;;;;;;;;5055882;28;20358;-70
2022/03/24 01:26:13;;;;;;;4.68;4.25;;;;;;;;;;5056375;28;20029;-70
2022/03/24 01:28:41;;;;;;;2.75;1.75;;;;;;;;;;5055487;28;20025;-70
2022/03/24 01:31:11;;;;;;;4.75;2.75;;;;;;;;;;5055795;28;20338;-70
2022/03/24 01:33:40;;;;;;;2.85;1.88;;;;;;;;;;5060165;28;20028;-70
2022/03/24 01:36:09;;;;;;;2.38;2.17;;;;;;;;;;5052829;28;20107;-70
2022/03/24 01:38:34;;;;;;;3.50;2.45;;;;;;;;;;5055313;28;20544;-70
2022/03/24 01:41:00;;;;;;;1.63;1.52;;;;;;;;;;5038347;28;20037;-70
2022/03/24 01:43:27;;;;;;;1.73;1.48;;;;;;;;;;5063743;28;20465;-69
2022/03/24 01:45:55;;;;;;;1.90;1.77;;;;;;;;;;5055693;28;20052;-70
2022/03/24 01:48:21;;;;;;;1.25;1.17;;;;;;;;;;5048153;28;20045;-71
2022/03/24 01:50:46;;;;;;;2.35;2.03;;;;;;;;;;5038315;28;20044;-69
2022/03/24 01:53:12;;;;;;;2.60;1.92;;;;;;;;;;5055425;28;20025;-70
2022/03/24 01:55:39;;;;;;;4.60;1.92;;;;;;;;;;5055584;28;20057;-70
2022/03/24 01:58:04;;;;;;;2.10;1.98;;;;;;;;;;5055770;28;20049;-71
2022/03/24 02:00:35;;;;;;;2.75;2.40;;;;;;;;;;5037321;28;20423;-70
2022/03/24 02:03:04;;;;;;;2.50;1.90;;;;;;;;;;5055699;28;20032;-70
2022/03/24 02:05:34;;;;;;;7.30;4.15;;;;;;;;;;5055507;28;20111;-70
2022/03/24 02:08:03;;;;;;;1.75;1.55;;;;;;;;;;5036861;28;20025;-70
2022/03/24 02:10:30;;;;;;;5.03;3.25;;;;;;;;;;5054882;28;20048;-70
2022/03/24 02:12:56;;;;;;;7.57;4.15;;;;;;;;;;5038257;28;20033;-70
2022/03/24 02:15:22;;;;;;;1.70;1.60;;;;;;;;;;5055578;28;20116;-69
2022/03/24 02:17:48;;;;;;;2.97;2.30;;;;;;;;;;5049007;28;20092;-70
2022/03/24 02:20:16;;;;;;;1.90;1.80;;;;;;;;;;5055221;28;20111;-70
2022/03/24 02:22:42;;;;;;;1.98;1.88;;;;;;;;;;5055565;28;20090;-70
2022/03/24 02:25:09;;;;;;;1.90;1.80;;;;;;;;;;5054825;28;20025;-70
2022/03/24 02:27:37;;;;;;;2.45;2.15;;;;;;;;;;5054781;28;20056;-69
2022/03/24 02:30:04;;;;;;;2.17;1.30;;;;;;;;;;5054684;28;20613;-70
2022/03/24 02:32:29;;;;;;;1.95;1.40;;;;;;;;;;5055249;28;20025;-70
2022/03/24 02:34:55;;;;;;;4.93;2.65;;;;;;;;;;5046404;28;20029;-70
2022/03/24 02:37:24;;;;;;;2.15;1.25;;;;;;;;;;5054956;28;20342;-70
2022/03/24 02:39:56;;;;;;;3.55;2.95;;;;;;;;;;5054732;28;20119;-70
2022/03/24 02:42:25;;;;;;;2.50;2.28;;;;;;;;;;5048174;28;20111;-70
2022/03/24 02:44:55;;;;;;;3.78;2.53;;;;;;;;;;5037861;28;20040;-70
2022/03/24 02:47:21;;;;;;;2.10;1.95;;;;;;;;;;5053737;28;20427;-70
2022/03/24 02:49:50;;;;;;;4.07;2.10;;;;;;;;;;5055087;28;20039;-70
2022/03/24 02:52:16;;;;;;;1.42;1.30;;;;;;;;;;5043363;28;20031;-70
2022/03/24 02:54:44;;;;;;;1.73;1.63;;;;;;;;;;5037102;28;20028;-70
2022/03/24 02:57:14;;;;;;;2.42;2.25;;;;;;;;;;5054557;28;20120;-70
2022/03/24 02:59:40;;;;;;;1.15;1.10;;;;;;;;;;5054426;28;20025;-70
2022/03/24 03:02:16;;;;;;;3.45;2.00;;;;;;;;;;5054700;28;20048;-70
2022/03/24 03:04:43;;;;;;;1.40;1.33;;;;;;;;;;5054288;28;20036;-70
2022/03/24 03:07:09;;;;;;;2.70;1.55;;;;;;;;;;5053803;28;20111;-70
2022/03/24 03:09:39;;;;;;;2.38;1.40;;;;;;;;;;5061137;28;20367;-71
2022/03/24 03:12:09;;;;;;;1.88;1.75;;;;;;;;;;5036813;28;20048;-70
2022/03/24 03:14:38;;;;;;;2.85;2.60;;;;;;;;;;5040650;28;20035;-70
2022/03/24 03:17:04;;;;;;;2.85;1.58;;;;;;;;;;5054624;28;20063;-70
2022/03/24 03:19:29;;;;;;;1.50;1.40;;;;;;;;;;5037001;28;20056;-70
2022/03/24 03:21:55;;;;;;;2.60;2.40;;;;;;;;;;5054079;28;20025;-70
2022/03/24 03:24:22;;;;;;;1.63;1.27;;;;;;;;;;5054271;28;20033;-70
2022/03/24 03:26:48;;;;;;;1.88;1.75;;;;;;;;;;5053917;28;20047;-71
2022/03/24 03:29:14;;;;;;;3.60;3.30;;;;;;;;;;5036381;28;20021;-70
2022/03/24 03:31:40;;;;;;;2.20;2.00;;;;;;;;;;5036436;28;20078;-71
2022/03/24 03:34:09;;;;;;;1.92;1.83;;;;;;;;;;5053938;28;20020;-71
2022/03/24 03:36:35;;;;;;;6.75;3.47;;;;;;;;;;5036556;28;20029;-71
2022/03/24 03:39:01;;;;;;;1.67;1.58;;;;;;;;;;5053650;28;20171;-70
2022/03/24 03:41:29;;;;;;;2.60;2.38;;;;;;;;;;5036509;28;20509;-70
2022/03/24 03:43:58;;;;;;;3.53;2.50;;;;;;;;;;5053474;28;20105;-70
2022/03/24 03:46:25;;;;;;;3.90;2.78;;;;;;;;;;5035598;28;20035;-70
2022/03/24 03:48:51;;;;;;;2.38;2.17;;;;;;;;;;5053670;28;20533;-71
2022/03/24 03:51:18;;;;;;;2.65;1.75;;;;;;;;;;5053577;28;20140;-70
2022/03/24 03:53:44;;;;;;;3.25;3.00;;;;;;;;;;5053670;28;20028;-70
2022/03/24 03:56:10;;;;;;;1.50;1.20;;;;;;;;;;5053575;28;20029;-70
2022/03/24 03:58:38;;;;;;;3.30;0.50;;;;;;;;;;5053683;28;20025;-70
2022/03/24 04:01:04;;;;;;;2.28;2.05;;;;;;;;;;5053508;28;20033;-70
2022/03/24 04:03:31;;;;;;;0.65;0.65;;;;;;;;;;5035966;28;20033;-70
2022/03/24 04:05:59;;;;;;;1.45;1.35;;;;;;;;;;5056523;28;20040;-70
2022/03/24 04:08:31;;;;;;;3.50;2.30;;;;;;;;;;5035598;28;20060;-70
2022/03/24 04:11:01;;;;;;;2.23;0.97;;;;;;;;;;5040576;28;20025;-70
2022/03/24 04:13:29;;;;;;;0.82;0.82;;;;;;;;;;5070470;28;20028;-70
2022/03/24 04:15:54;;;;;;;5.13;3.05;;;;;;;;;;5053100;28;20024;-70
2022/03/24 04:18:22;;;;;;;2.80;2.55;;;;;;;;;;5053508;28;20103;-70
2022/03/24 04:20:48;;;;;;;5.32;3.35;;;;;;;;;;5057588;28;20021;-71
2022/03/24 04:23:13;;;;;;;5.53;2.45;;;;;;;;;;5052011;28;20060;-71
2022/03/24 04:25:41;;;;;;;1.33;1.25;;;;;;;;;;5053518;28;20059;-70
2022/03/24 04:28:09;;;;;;;2.78;2.53;;;;;;;;;;5053293;28;20067;-70
2022/03/24 04:30:37;;;;;;;1.23;1.23;;;;;;;;;;5053045;28;20025;-70
2022/03/24 04:33:04;;;;;;;1.33;1.10;;;;;;;;;;5035934;28;20017;-71
2022/03/24 04:35:30;;;;;;;1.45;1.35;;;;;;;;;;5036172;28;20021;-70
2022/03/24 04:37:55;;;;;;;2.05;1.95;;;;;;;;;;5035341;28;20087;-70
2022/03/24 04:40:24;;;;;;;1.63;1.52;;;;;;;;;;5053135;28;20035;-70
2022/03/24 04:42:51;;;;;;;6.93;1.95;;;;;;;;;;5036442;28;20025;-70
2022/03/24 04:45:22;;;;;;;1.25;1.23;;;;;;;;;;5052676;28;20032;-70
2022/03/24 04:47:48;;;;;;;3.17;1.83;;;;;;;;;;5037028;28;20366;-70
2022/03/24 04:50:17;;;;;;;0.88;0.88;;;;;;;;;;5036234;28;20116;-69
2022/03/24 04:52:43;;;;;;;2.10;1.63;;;;;;;;;;5053436;28;20472;-70
2022/03/24 04:55:10;;;;;;;8.18;3.40;;;;;;;;;;5052802;28;20040;-70
2022/03/24 04:57:42;;;;;;;2.53;1.65;;;;;;;;;;5040124;28;20072;-77
2022/03/24 05:00:11;;;;;;;1.85;1.20;;;;;;;;;;5052568;28;20039;-73
2022/03/24 05:02:39;;;;;;;1.05;1.02;;;;;;;;;;5050127;28;20029;-76
2022/03/24 05:05:10;;;;;;;3.38;3.05;;;;;;;;;;5055307;28;20128;-76
2022/03/24 05:07:37;;;;;;;1.17;1.10;;;;;;;;;;5022141;28;20044;-75
2022/03/24 05:10:04;;;;;;;3.75;3.45;;;;;;;;;;5056556;28;20029;-75
2022/03/24 05:12:30;;;;;;;1.52;1.42;;;;;;;;;;5056605;28;20033;-75
2022/03/24 05:14:56;;;;;;;1.50;1.20;;;;;;;;;;5039062;28;20094;-76
2022/03/24 05:17:22;;;;;;;1.58;1.48;;;;;;;;;;5038959;28;20397;-75
2022/03/24 05:19:48;;;;;;;1.33;1.23;;;;;;;;;;5056586;28;20028;-76
2022/03/24 05:22:14;;;;;;;3.33;2.00;;;;;;;;;;5056526;28;20477;-77
2022/03/24 05:24:42;;;;;;;1.90;1.75;;;;;;;;;;5056488;28;20052;-76
2022/03/24 05:27:08;;;;;;;1.77;1.63;;;;;;;;;;5056465;28;20025;-75
2022/03/24 05:29:34;;;;;;;1.23;1.17;;;;;;;;;;5056439;28;20029;-77
2022/03/24 05:32:02;;;;;;;1.30;0.90;;;;;;;;;;5038651;28;20024;-77
2022/03/24 05:34:27;;;;;;;4.97;2.95;;;;;;;;;;5056169;28;20033;-77
2022/03/24 05:36:53;;;;;;;2.65;2.45;;;;;;;;;;5056110;28;20036;-77
2022/03/24 05:39:20;;;;;;;0.70;0.70;;;;;;;;;;5056097;28;20429;-77
2022/03/24 05:41:46;;;;;;;3.17;2.92;;;;;;;;;;5056232;28;20025;-77
2022/03/24 05:44:13;;;;;;;1.85;0.55;;;;;;;;;;5056053;28;20055;-77
2022/03/24 05:46:41;;;;;;;3.38;2.80;;;;;;;;;;5061584;28;20070;-77
2022/03/24 05:49:10;;;;;;;1.00;0.93;;;;;;;;;;5066315;28;20029;-77
2022/03/24 05:51:36;;;;;;;1.65;1.55;;;;;;;;;;5055469;28;20082;-77
2022/03/24 05:54:04;;;;;;;1.45;1.35;;;;;;;;;;5041623;28;20107;-77
2022/03/24 05:56:30;;;;;;;5.78;2.15;;;;;;;;;;5022441;28;20032;-76
2022/03/24 05:58:56;;;;;;;3.83;3.53;;;;;;;;;;5055507;28;20029;-76
2022/03/24 06:01:24;;;;;;;6.50;3.42;;;;;;;;;;5055357;28;20021;-76
2022/03/24 06:03:51;;;;;;;1.65;1.55;;;;;;;;;;5055251;28;20041;-77
2022/03/24 06:06:19;;;;;;;3.95;3.22;;;;;;;;;;5038176;28;20029;-76
2022/03/24 06:08:45;;;;;;;4.75;1.42;;;;;;;;;;5037733;28;20437;-76
2022/03/24 06:11:14;;;;;;;4.40;3.65;;;;;;;;;;5055282;28;20104;-76
2022/03/24 06:13:40;;;;;;;3.05;2.53;;;;;;;;;;5055358;28;20064;-76
2022/03/24 06:16:06;;;;;;;3.47;2.85;;;;;;;;;;5021212;28;20029;-77
2022/03/24 06:18:36;;;;;;;0.77;0.77;;;;;;;;;;5055194;28;20040;-76
2022/03/24 06:21:07;;;;;;;10.13;3.55;;;;;;;;;;5055241;28;20063;-76
2022/03/24 06:23:35;;;;;;;1.60;1.55;;;;;;;;;;5057941;28;20036;-76
2022/03/24 06:26:01;;;;;;;3.72;2.08;;;;;;;;;;5055266;28;20094;-77
2022/03/24 06:28:27;;;;;;;3.28;2.60;;;;;;;;;;5037620;28;20033;-77
2022/03/24 06:30:55;;;;;;;3.13;2.13;;;;;;;;;;5054713;28;20099;-77
2022/03/24 06:33:20;;;;;;;1.15;1.15;;;;;;;;;;5037469;28;20017;-77
2022/03/24 06:35:48;;;;;;;5.25;3.55;;;;;;;;;;5037583;28;20104;-76
2022/03/24 06:38:17;;;;;;;6.68;3.58;;;;;;;;;;5067522;28;20057;-77
2022/03/24 06:40:45;;;;;;;4.15;3.75;;;;;;;;;;5038194;28;20020;-78
2022/03/24 06:43:12;;;;;;;4.25;3.28;;;;;;;;;;5037516;28;20036;-77
2022/03/24 06:45:41;;;;;;;2.60;2.40;;;;;;;;;;5055082;28;20025;-77
2022/03/24 06:48:11;;;;;;;2.20;2.00;;;;;;;;;;5021602;28;20029;-76
2022/03/24 06:50:41;;;;;;;3.08;2.85;;;;;;;;;;5038199;28;20028;-76
2022/03/24 06:53:09;;;;;;;7.07;2.10;;;;;;;;;;5054818;28;20458;-77
2022/03/24 06:55:35;;;;;;;4.00;3.00;;;;;;;;;;5054745;28;20355;-77
2022/03/24 06:58:00;;;;;;;9.90;3.85;;;;;;;;;;5054049;28;20029;-76
2022/03/24 07:00:26;;;;;;;2.08;1.98;;;;;;;;;;5036846;28;20025;-76
2022/03/24 07:02:57;;;;;;;7.65;2.35;;;;;;;;;;5037711;28;20438;-76
2022/03/24 07:05:22;;;;;;;3.63;3.05;;;;;;;;;;5037456;28;20115;-77
2022/03/24 07:07:47;;;;;;;2.33;2.13;;;;;;;;;;5055287;28;20168;-77
2022/03/24 07:10:15;;;;;;;8.40;3.13;;;;;;;;;;5054512;28;20083;-76
2022/03/24 07:12:41;;;;;;;1.98;1.88;;;;;;;;;;5054169;28;20449;-77
2022/03/24 07:15:12;;;;;;;4.00;3.20;;;;;;;;;;5054533;28;20104;-76
2022/03/24 07:17:37;;;;;;;6.80;3.63;;;;;;;;;;5053601;28;20044;-78
2022/03/24 07:20:04;;;;;;;5.03;1.88;;;;;;;;;;5058417;28;20357;-77
2022/03/24 07:22:34;;;;;;;4.63;3.60;;;;;;;;;;5053684;28;20342;-78
2022/03/24 07:24:59;;;;;;;13.27;5.28;;;;;;;;;;5021406;28;20454;-77
2022/03/24 07:27:25;;;;;;;1.67;1.52;;;;;;;;;;5049051;28;20045;-78
2022/03/24 07:29:50;;;;;;;8.55;4.53;;;;;;;;;;5051668;28;20028;-78
2022/03/24 07:32:19;;;;;;;3.80;3.30;;;;;;;;;;5036494;28;20045;-78
2022/03/24 07:34:44;;;;;;;5.47;3.92;;;;;;;;;;5041556;28;20021;-78
2022/03/24 07:37:09;;;;;;;5.80;4.63;;;;;;;;;;5036697;28;20393;-78
2022/03/24 07:39:37;;;;;;;8.48;4.80;;;;;;;;;;5036518;28;20033;-79
2022/03/24 07:42:03;;;;;;;4.35;3.90;;;;;;;;;;5033612;28;20450;-78
2022/03/24 07:44:28;;;;;;;4.15;3.45;;;;;;;;;;5053640;28;20052;-78
2022/03/24 07:46:54;;;;;;;5.70;4.43;;;;;;;;;;5035620;28;20033;-79
2022/03/24 07:49:19;;;;;;;34.13;4.15;;;;;;;;;;5036038;28;20025;-79
2022/03/24 07:51:45;;;;;;;7.85;4.03;;;;;;;;;;5053833;28;20036;-78
2022/03/24 07:54:13;;;;;;;4.57;4.18;;;;;;;;;;5049377;28;20096;-77
2022/03/24 07:56:41;;;;;;;6.40;4.95;;;;;;;;;;5035556;28;20031;-78
2022/03/24 07:59:06;;;;;;;6.75;4.38;;;;;;;;;;5053328;28;20033;-78
2022/03/24 08:01:37;;;;;;;5.28;4.68;;;;;;;;;;5050637;28;20035;-79
2022/03/24 08:04:06;;;;;;;5.03;3.40;;;;;;;;;;5030147;28;20053;-79
2022/03/24 08:06:33;;;;;;;4.43;3.90;;;;;;;;;;5029836;28;20025;-79
2022/03/24 08:08:59;;;;;;;16.02;5.50;;;;;;;;;;5029318;28;20025;-78
2022/03/24 08:11:25;;;;;;;5.97;4.90;;;;;;;;;;5035707;28;20025;-78
2022/03/24 08:13:57;;;;;;;5.05;4.47;;;;;;;;;;5052157;28;20036;-79
2022/03/24 08:16:24;;;;;;;7.78;5.13;;;;;;;;;;5035906;28;20036;-79
2022/03/24 08:18:50;;;;;;;8.32;5.55;;;;;;;;;;5034840;28;20025;-78
2022/03/24 08:21:15;;;;;;;9.10;5.35;;;;;;;;;;5053059;28;20021;-78
2022/03/24 08:23:43;;;;;;;7.75;5.03;;;;;;;;;;5052943;28;20021;-77
2022/03/24 08:26:09;;;;;;;8.32;4.50;;;;;;;;;;5019535;28;20405;-77
2022/03/24 08:28:34;;;;;;;8.43;6.03;;;;;;;;;;5052821;28;20032;-77
2022/03/24 08:31:00;;;;;;;7.00;6.32;;;;;;;;;;5053318;28;20029;-77
2022/03/24 08:33:25;;;;;;;10.00;5.10;;;;;;;;;;5056509;28;20093;-77
2022/03/24 08:35:50;;;;;;;21.00;7.00;;;;;;;;;;5056937;28;20032;-77
2022/03/24 08:38:18;;;;;;;6.90;4.55;;;;;;;;;;5056803;28;20016;-77
2022/03/24 08:40:43;;;;;;;6.32;4.97;;;;;;;;;;5057121;28;20027;-76
2022/03/24 08:43:11;;;;;;;11.07;5.88;;;;;;;;;;5038554;28;20108;-76
2022/03/24 08:45:37;;;;;;;10.18;5.80;;;;;;;;;;5054443;28;20043;-78
2022/03/24 08:48:03;;;;;;;8.43;5.43;;;;;;;;;;5038362;28;20033;-79
2022/03/24 08:50:29;;;;;;;12.27;5.05;;;;;;;;;;5037429;28;20029;-79
2022/03/24 08:52:55;;;;;;;10.95;7.63;;;;;;;;;;5038969;28;20087;-79
2022/03/24 08:55:20;;;;;;;8.45;4.90;;;;;;;;;;5056032;28;20108;-78
2022/03/24 08:57:47;;;;;;;11.75;7.88;;;;;;;;;;5052921;28;20109;-76
2022/03/24 09:00:17;;;;;;;10.30;7.55;;;;;;;;;;5037787;28;20020;-76
2022/03/24 09:02:48;;;;;;;10.43;6.88;;;;;;;;;;5036193;28;20037;-76
2022/03/24 09:05:19;;;;;;;25.02;7.00;;;;;;;;;;5055952;28;20020;-77
2022/03/24 09:07:45;;;;;;;7.35;5.40;;;;;;;;;;5039377;28;20500;-77
2022/03/24 09:10:15;;;;;;;5.32;4.80;;;;;;;;;;5056676;28;20033;-78
2022/03/24 09:12:44;;;;;;;8.57;5.25;;;;;;;;;;5056683;28;20080;-75
2022/03/24 09:15:11;;;;;;;8.07;7.28;;;;;;;;;;5055477;28;20036;-77
2022/03/24 09:17:38;;;;;;;7.85;5.88;;;;;;;;;;5055515;28;20032;-78
2022/03/24 09:20:09;;;;;;;12.73;6.82;;;;;;;;;;5040747;28;20038;-77
2022/03/24 09:22:36;;;;;;;10.57;7.13;;;;;;;;;;5056238;28;20024;-76
2022/03/24 09:25:07;;;;;;;10.45;6.75;;;;;;;;;;5038826;28;20032;-79
2022/03/24 09:27:34;;;;;;;7.97;6.45;;;;;;;;;;5055776;28;20033;-78
2022/03/24 09:29:59;;;;;;;9.48;6.07;;;;;;;;;;5054450;28;20094;-78
2022/03/24 09:32:31;;;;;;;15.98;6.18;;;;;;;;;;5054213;28;20029;-79
2022/03/24 09:34:57;;;;;;;9.25;6.68;;;;;;;;;;5054050;28;20032;-78
2022/03/24 09:37:23;;;;;;;7.82;6.07;;;;;;;;;;5054752;28;20029;-77
2022/03/24 09:39:49;;;;;;;11.73;7.07;;;;;;;;;;5055474;28;20024;-78
2022/03/24 09:42:17;;;;;;;8.32;5.70;;;;;;;;;;5054999;28;20028;-78
2022/03/24 09:44:44;;;;;;;10.98;6.70;;;;;;;;;;5038128;28;20017;-78
2022/03/24 09:47:16;;;;;;;8.88;6.30;;;;;;;;;;5037372;28;20053;-80
2022/03/24 09:49:44;;;;;;;6.75;5.50;;;;;;;;;;5032503;28;20370;-78
2022/03/24 09:52:11;;;;;;;8.52;5.50;;;;;;;;;;5037929;28;20510;-81
2022/03/24 09:54:38;;;;;;;10.85;7.45;;;;;;;;;;5021973;28;20361;-78
2022/03/24 09:57:07;;;;;;;9.05;6.93;;;;;;;;;;5038136;28;20025;-78
2022/03/24 09:59:32;;;;;;;9.02;7.03;;;;;;;;;;5054784;28;20391;-80
2022/03/24 10:01:57;;;;;;;9.48;5.40;;;;;;;;;;5036878;28;20107;-79
2022/03/24 10:04:23;;;;;;;6.70;4.85;;;;;;;;;;5055624;28;20112;-78
2022/03/24 10:07:02;;;;;;;11.05;6.80;;;;;;;;;;5035896;28;20472;-79
2022/03/24 10:09:35;;;;;;;11.90;7.15;;;;;;;;;;5043510;28;20059;-77
2022/03/24 10:12:00;;;;;;;9.35;6.40;;;;;;;;;;5060388;28;20028;-77
2022/03/24 10:14:29;;;;;;;8.02;6.68;;;;;;;;;;5054495;28;20021;-76
2022/03/24 10:16:54;;;;;;;8.02;6.60;;;;;;;;;;5040040;28;20413;-79
2022/03/24 10:19:20;;;;;;;9.95;6.80;;;;;;;;;;5020903;28;20026;-76
2022/03/24 10:21:49;;;;;;;9.77;5.82;;;;;;;;;;5061258;28;20454;-76
2022/03/24 10:24:20;;;;;;;8.93;5.85;;;;;;;;;;5036703;28;21206;-77
2022/03/24 10:27:03;;;;;;;12.18;5.82;;;;;;;;;;5050919;28;20025;-76
2022/03/24 10:29:29;;;;;;;20.90;6.03;;;;;;;;;;5052545;28;20132;-77
2022/03/24 10:31:57;;;;;;;8.73;6.07;;;;;;;;;;5020245;28;20067;-73
2022/03/24 10:34:35;;;;;;;11.48;7.07;;;;;;;;;;5023955;28;20060;-73
2022/03/24 10:37:09;;;;;;;6.68;5.28;;;;;;;;;;5054488;28;20116;-73
2022/03/24 10:39:38;;;;;;;9.60;6.13;;;;;;;;;;5059326;28;20029;-74
2022/03/24 10:42:15;;;;;;;12.93;7.72;;;;;;;;;;5059256;28;20028;-72
2022/03/24 10:45:10;;;;;;;7.38;5.38;;;;;;;;;;5036076;28;20028;-73
2022/03/24 10:47:42;;;;;;;9.18;6.10;;;;;;;;;;5054735;28;20025;-73
2022/03/24 10:53:43;;;;;;;8.07;6.68;;;;;;;;;;5052503;28;20079;-75
2022/03/24 10:56:13;;;;;;;8.75;6.63;;;;;;;;;;5036372;28;20028;-76
2022/03/24 10:58:53;;;;;;;9.27;5.95;;;;;;;;;;5034955;28;20021;-75
2022/03/24 11:01:20;;;;;;;8.60;7.00;;;;;;;;;;5054202;28;20105;-75
2022/03/24 11:03:45;;;;;;;7.95;5.28;;;;;;;;;;5054127;28;20056;-76
2022/03/24 11:06:17;;;;;;;6.43;5.00;;;;;;;;;;5051500;28;20086;-75
2022/03/24 11:09:02;;;;;;;5.70;4.53;;;;;;;;;;5033839;28;20021;-76
2022/03/24 11:11:33;;;;;;;14.88;7.30;;;;;;;;;;5056532;28;20406;-77
2022/03/24 11:14:02;;;;;;;7.80;5.78;;;;;;;;;;5039027;28;20020;-78
2022/03/24 11:16:32;;;;;;;5.72;5.00;;;;;;;;;;5054681;28;20036;-75
2022/03/24 11:19:01;;;;;;;10.82;7.93;;;;;;;;;;5021417;28;20017;-76
2022/03/24 11:21:44;;;;;;;8.45;5.20;;;;;;;;;;5037694;28;20447;-76
2022/03/24 11:24:09;;;;;;;7.88;5.47;;;;;;;;;;5056889;28;20032;-77
2022/03/24 11:26:35;;;;;;;7.47;4.20;;;;;;;;;;5058912;28;20024;-79
2022/03/24 11:29:02;;;;;;;5.65;4.88;;;;;;;;;;5039490;28;20048;-75
2022/03/24 11:31:28;;;;;;;5.78;4.93;;;;;;;;;;5054212;28;20029;-76
2022/03/24 11:33:54;;;;;;;6.70;6.00;;;;;;;;;;5048019;28;20025;-75
2022/03/24 11:36:22;;;;;;;8.95;5.50;;;;;;;;;;5018806;28;20077;-75
2022/03/24 11:38:53;;;;;;;8.27;5.13;;;;;;;;;;5036337;28;20059;-80
2022/03/24 11:41:26;;;;;;;6.57;5.20;;;;;;;;;;5053182;28;20048;-76
2022/03/24 11:43:55;;;;;;;6.55;3.80;;;;;;;;;;5037695;28;20044;-75
2022/03/24 11:46:37;;;;;;;5.43;3.80;;;;;;;;;;5025750;28;20477;-75
2022/03/24 11:49:18;;;;;;;9.10;5.68;;;;;;;;;;5052245;28;20438;-75
2022/03/24 11:52:09;;;;;;;6.50;5.28;;;;;;;;;;5050573;28;20020;-77
2022/03/24 11:54:38;;;;;;;9.52;5.97;;;;;;;;;;5020671;28;20380;-75
2022/03/24 11:57:23;;;;;;;8.10;5.63;;;;;;;;;;5053901;28;20111;-76
2022/03/24 11:59:50;;;;;;;8.20;6.20;;;;;;;;;;5036416;28;20416;-78
2022/03/24 12:02:18;;;;;;;6.25;5.43;;;;;;;;;;5052715;28;20021;-77
2022/03/24 12:04:45;;;;;;;6.78;5.50;;;;;;;;;;5038274;28;20075;-77
2022/03/24 12:07:15;;;;;;;6.78;5.75;;;;;;;;;;5055058;28;20090;-76
2022/03/24 12:10:01;;;;;;;6.35;5.13;;;;;;;;;;5040308;28;20430;-76
2022/03/24 12:12:27;;;;;;;6.80;5.05;;;;;;;;;;5072981;28;20032;-77
2022/03/24 12:14:54;;;;;;;5.97;5.15;;;;;;;;;;5056659;28;20032;-76
2022/03/24 12:17:25;;;;;;;7.32;5.13;;;;;;;;;;5073415;28;20102;-78
2022/03/24 12:19:54;;;;;;;5.68;5.03;;;;;;;;;;5077742;28;20151;-76
2022/03/24 12:22:26;;;;;;;8.98;5.05;;;;;;;;;;5040380;28;20052;-76
2022/03/24 12:25:08;;;;;;;8.90;5.57;;;;;;;;;;5072132;28;20039;-75
2022/03/24 12:27:36;;;;;;;7.13;5.25;;;;;;;;;;5073877;28;20025;-75
2022/03/24 12:30:11;;;;;;;10.13;6.65;;;;;;;;;;5058555;28;20020;-78
2022/03/24 12:32:42;;;;;;;10.18;6.15;;;;;;;;;;5072557;28;20036;-77
2022/03/24 12:35:08;;;;;;;;;;;;;;;;;;5060175;28;20040;-77
2022/03/24 12:37:33;;;;;;;9.55;6.28;;;;;;;;;;5037664;28;20243;-78
2022/03/24 12:40:11;;;;;;;7.40;6.00;;;;;;;;;;5078362;28;20503;-78
2022/03/24 12:42:45;;;;;;;10.02;6.65;;;;;;;;;;5071324;28;20453;-79
2022/03/24 12:45:35;;;;;;;8.02;6.22;;;;;;;;;;5069696;28;20028;-77
2022/03/24 12:48:09;;;;;;;22.10;6.28;;;;;;;;;;5069614;28;20100;-78
2022/03/24 12:50:37;;;;;;;6.55;4.80;;;;;;;;;;5076558;28;20031;-77
2022/03/24 12:53:04;;;;;;;9.00;6.45;;;;;;;;;;5078654;28;20047;-78
2022/03/24 12:55:35;;;;;;;7.63;4.63;;;;;;;;;;5054709;28;20120;-77
2022/03/24 12:58:04;;;;;;;11.65;6.60;;;;;;;;;;5065886;28;20052;-76
2022/03/24 13:00:34;;;;;;;13.32;7.35;;;;;;;;;;5072139;28;20457;-76
2022/03/24 13:03:03;;;;;;;9.00;6.53;;;;;;;;;;5053880;28;20116;-77
2022/03/24 13:05:31;;;;;;;13.77;6.18;;;;;;;;;;5055894;28;20020;-77
2022/03/24 13:07:59;;;;;;;10.60;6.38;;;;;;;;;;5069731;28;20036;-72
2022/03/24 13:10:26;;;;;;;11.10;6.88;;;;;;;;;;5079907;28;20058;-72
2022/03/24 13:12:55;;;;;;;10.82;6.45;;;;;;;;;;5038955;28;20496;-73
2022/03/24 13:15:33;;;;;;;10.32;7.50;;;;;;;;;;5072524;28;20024;-72
2022/03/24 13:18:05;;;;;;;6.57;5.35;;;;;;;;;;5054145;28;20445;-72
2022/03/24 13:20:34;;;;;;;;;;;;;;;;;;5058457;28;20388;-71
2022/03/24 13:23:04;;;;;;;6.20;4.70;;;;;;;;;;5076873;28;19962;-73
2022/03/24 13:25:30;;;;;;;7.72;6.13;;;;;;;;;;5047715;28;20036;-73
2022/03/24 13:30:30;;;;;;;7.93;5.95;;;;;;;;;;5008707;28;20050;-73
2022/03/24 13:33:03;;;;;;;6.93;5.18;;;;;;;;;;5014925;28;20037;-73
2022/03/24 13:35:31;;;;;;;11.73;6.68;;;;;;;;;;5022042;28;20033;-74
2022/03/24 13:38:01;;;;;;;18.67;6.47;;;;;;;;;;5001288;28;20092;-75
2022/03/24 13:40:30;;;;;;;7.15;6.47;;;;;;;;;;5014615;28;20398;-74
2022/03/24 13:42:56;;;;;;;9.75;6.22;;;;;;;;;;5014752;28;20022;-73
2022/03/24 13:45:28;;;;;;;8.18;5.22;;;;;;;;;;5009019;28;20030;-73
2022/03/24 13:47:56;;;;;;;6.97;5.18;;;;;;;;;;4992898;28;20029;-72
2022/03/24 13:50:31;;;;;;;9.88;7.85;;;;;;;;;;5018203;28;20022;-72
2022/03/24 13:52:58;;;;;;;8.23;5.85;;;;;;;;;;5006087;28;20022;-72
2022/03/24 13:55:31;;;;;;;7.03;6.03;;;;;;;;;;5017767;28;20049;-73
2022/03/24 13:58:01;;;;;;;12.23;6.10;;;;;;;;;;4988933;28;20484;-73
2022/03/24 14:00:34;;;;;;;6.63;4.57;;;;;;;;;;5020460;28;20037;-73
2022/03/24 14:03:07;;;;;;;10.10;7.22;;;;;;;;;;4998911;28;20428;-73
2022/03/24 14:05:52;;;;;;;12.60;7.35;;;;;;;;;;5008020;28;20033;-73
2022/03/24 14:08:31;;;;;;;9.52;6.60;;;;;;;;;;5010838;28;20026;-72
2022/03/24 14:11:02;;;;;;;9.13;6.38;;;;;;;;;;5000657;28;20095;-72
2022/03/24 14:13:58;;;;;;;8.02;6.18;;;;;;;;;;5016373;28;20030;-73
2022/03/24 14:16:39;;;;;;;12.48;5.88;;;;;;;;;;4992216;28;20045;-73
2022/03/24 14:19:06;;;;;;;7.45;4.78;;;;;;;;;;5009009;28;20022;-72
2022/03/24 14:21:46;;;;;;;6.40;5.32;;;;;;;;;;5014807;28;20454;-72
2022/03/24 14:24:27;;;;;;;11.43;6.63;;;;;;;;;;5017945;28;20068;-73
2022/03/24 14:27:11;;;;;;;10.80;6.28;;;;;;;;;;5012958;28;20036;-73
2022/03/24 14:29:41;;;;;;;9.48;6.40;;;;;;;;;;5013485;28;20475;-74
2022/03/24 14:32:21;;;;;;;9.63;5.85;;;;;;;;;;5013260;28;20455;-72
2022/03/24 14:35:27;;;;;;;9.40;6.15;;;;;;;;;;5020553;28;20030;-72
2022/03/24 14:37:55;;;;;;;10.10;5.60;;;;;;;;;;4954991;28;20031;-72
2022/03/24 14:40:32;;;;;;;14.48;6.32;;;;;;;;;;5007659;28;20108;-72
2022/03/24 14:43:03;;;;;;;12.77;6.75;;;;;;;;;;5015352;28;20022;-72
2022/03/24 14:45:30;;;;;;;13.23;7.10;;;;;;;;;;5010604;28;20056;-72
2022/03/24 14:48:01;;;;;;;12.45;6.03;;;;;;;;;;5014141;28;20060;-72
2022/03/24 14:50:27;;;;;;;9.13;5.32;;;;;;;;;;5015184;28;20029;-72
2022/03/24 14:52:57;;;;;;;9.52;4.75;;;;;;;;;;5013996;28;20045;-73
2022/03/24 14:55:23;;;;;;;9.05;5.72;;;;;;;;;;5014958;28;20435;-73